ダカール の空港の天気 - METARとTAF

レオポール・セダール・サンゴール国際空港 ( GOOY / DKR ) - セネガル ダカール
飛行場実況気象(Metar)
観測時間12/06 11:00 GMT (12/06 11:00 UTC)
風向・風速北北西 7m/s
視程10km以上
天気現象
なし
気温28℃
湿度70%
気圧1015hPa
METARGOOY 061100Z 34014KT CAVOK 28/22 Q1015
過去の天気等 Google飛行場航空写真 Wunderground天気予報

過去48時間のMETAR

飛行場予報(TAF)
発表時間: 12/06 11:00 GMT (12/06 11:00 UTC)
予報対象時間: 6日12時 GMT ~ 7日18時 GMT
風向・風速北 5m/s
視程10km以上
なし
TAF GOOY 061100Z 0612/0718 36010KT CAVOK